createdAt,value
2023-01-06T00:00:11.266Z,68.05
2023-01-06T00:01:04.136Z,68.07
2023-01-06T00:01:36.351Z,68.11
2023-01-06T00:02:08.554Z,68.19
2023-01-06T00:02:40.995Z,68.28
2023-01-06T00:03:13.923Z,68.33
2023-01-06T00:03:53.686Z,68.45
2023-01-06T00:04:25.781Z,68.52
2023-01-06T00:04:58.061Z,68.54
2023-01-06T00:05:30.589Z,68.59
2023-01-06T00:06:05.149Z,68.63
2023-01-06T00:06:37.303Z,68.70
2023-01-06T00:07:09.381Z,68.76
2023-01-06T00:07:43.395Z,68.79
2023-01-06T00:08:15.286Z,68.86
2023-01-06T00:08:47.356Z,68.87
2023-01-06T00:09:19.468Z,68.87
2023-01-06T00:09:51.723Z,68.87
2023-01-06T00:10:23.836Z,68.89
2023-01-06T00:10:55.972Z,68.89
2023-01-06T00:11:28.643Z,68.83
2023-01-06T00:12:00.972Z,68.81
2023-01-06T00:12:33.398Z,68.83
2023-01-06T00:13:05.489Z,68.85
2023-01-06T00:13:38.651Z,68.91
2023-01-06T00:14:10.787Z,69.00
2023-01-06T00:14:43.814Z,69.02
2023-01-06T00:15:16.877Z,69.07
2023-01-06T00:15:49.141Z,69.13
2023-01-06T00:16:22.373Z,69.21
2023-01-06T00:16:54.856Z,69.27
2023-01-06T00:17:27.107Z,69.35
2023-01-06T00:17:59.144Z,69.40
2023-01-06T00:18:31.220Z,69.43
2023-01-06T00:19:03.352Z,69.44
2023-01-06T00:19:35.867Z,69.51
2023-01-06T00:20:09.471Z,69.53
2023-01-06T00:20:41.548Z,69.51
2023-01-06T00:21:14.665Z,69.50
2023-01-06T00:21:46.834Z,69.51
2023-01-06T00:22:19.000Z,69.49
2023-01-06T00:22:51.057Z,69.49
2023-01-06T00:23:23.112Z,69.53
2023-01-06T00:23:55.890Z,69.53
2023-01-06T00:24:28.487Z,69.55
2023-01-06T00:25:00.679Z,69.53
2023-01-06T00:25:32.871Z,69.54
2023-01-06T00:26:06.709Z,69.56
2023-01-06T00:26:39.036Z,69.57
2023-01-06T00:27:11.123Z,69.57
2023-01-06T00:27:43.400Z,69.57
2023-01-06T00:28:15.358Z,69.61
2023-01-06T00:28:47.598Z,69.64
2023-01-06T00:29:19.758Z,69.60
2023-01-06T00:29:52.072Z,69.53
2023-01-06T00:30:24.028Z,69.48
2023-01-06T00:30:57.151Z,69.48
2023-01-06T00:31:29.461Z,69.49
2023-01-06T00:32:02.477Z,69.51
2023-01-06T00:32:35.324Z,69.47
2023-01-06T00:33:07.467Z,69.42
2023-01-06T00:33:40.409Z,69.31
2023-01-06T00:34:12.621Z,69.21
2023-01-06T00:34:44.616Z,69.13
2023-01-06T00:35:16.939Z,69.06
2023-01-06T00:35:49.248Z,69.00
2023-01-06T00:36:21.367Z,68.93
2023-01-06T00:36:53.467Z,68.95
2023-01-06T00:37:25.746Z,68.90
2023-01-06T00:37:57.902Z,68.86
2023-01-06T00:38:30.589Z,68.86
2023-01-06T00:39:02.910Z,68.86
2023-01-06T00:39:35.080Z,68.80
2023-01-06T00:40:07.462Z,68.78
2023-01-06T00:40:39.641Z,68.70
2023-01-06T00:41:32.193Z,68.60
2023-01-06T00:42:04.331Z,68.50
2023-01-06T00:42:36.695Z,68.48
2023-01-06T00:43:08.781Z,68.46
2023-01-06T00:43:40.854Z,68.42
2023-01-06T00:44:12.875Z,68.40
2023-01-06T00:44:45.502Z,68.38
2023-01-06T00:45:24.001Z,68.38
2023-01-06T00:46:10.024Z,68.38
2023-01-06T00:46:45.413Z,68.44
2023-01-06T00:47:18.619Z,68.50
2023-01-06T00:49:12.704Z,68.58
2023-01-06T00:49:44.750Z,68.60
2023-01-06T00:50:17.295Z,68.60
2023-01-06T00:51:00.935Z,68.65
2023-01-06T00:51:34.818Z,68.64
2023-01-06T00:52:06.888Z,68.69
2023-01-06T00:52:39.162Z,68.71
2023-01-06T00:53:14.490Z,68.76
2023-01-06T00:53:46.588Z,68.73
2023-01-06T00:54:19.329Z,68.72
2023-01-06T00:54:51.383Z,68.76
2023-01-06T00:55:23.555Z,68.78
2023-01-06T00:56:00.961Z,68.81
2023-01-06T00:56:51.543Z,68.87
2023-01-06T00:57:29.088Z,68.87
2023-01-06T00:58:15.386Z,68.82
2023-01-06T00:58:48.230Z,68.85
2023-01-06T00:59:24.923Z,68.82
2023-01-06T00:59:57.209Z,68.81
2023-01-06T01:00:30.870Z,68.82
2023-01-06T01:01:10.479Z,68.87
2023-01-06T01:02:02.190Z,68.83
2023-01-06T01:02:35.304Z,68.81
2023-01-06T01:03:07.741Z,68.85
2023-01-06T01:04:37.483Z,68.87
2023-01-06T01:05:09.655Z,68.95
2023-01-06T01:05:41.652Z,68.95
2023-01-06T01:06:15.540Z,69.02
2023-01-06T01:07:00.280Z,69.23
2023-01-06T01:07:36.948Z,69.23
2023-01-06T01:08:09.058Z,69.37
2023-01-06T01:08:40.997Z,69.40
2023-01-06T01:09:19.287Z,69.47
2023-01-06T01:09:51.256Z,69.55
2023-01-06T01:10:23.350Z,69.58
2023-01-06T01:10:56.358Z,69.61
2023-01-06T01:11:47.713Z,69.64
2023-01-06T01:12:19.736Z,69.73
2023-01-06T01:12:53.681Z,69.77
2023-01-06T01:13:25.820Z,69.87
2023-01-06T01:13:57.753Z,69.96
2023-01-06T01:14:46.885Z,70.01
2023-01-06T01:15:18.903Z,70.02
2023-01-06T01:15:50.955Z,70.01
2023-01-06T01:16:23.258Z,69.99
2023-01-06T01:16:55.356Z,70.01
2023-01-06T01:17:31.885Z,70.05
2023-01-06T01:18:03.874Z,70.07
2023-01-06T01:18:36.360Z,70.11
2023-01-06T01:19:09.170Z,70.14
2023-01-06T01:19:41.300Z,70.14
2023-01-06T01:20:13.222Z,70.17
2023-01-06T01:20:46.687Z,70.24
2023-01-06T01:21:18.652Z,70.35
2023-01-06T01:21:50.827Z,70.42
2023-01-06T01:22:25.526Z,70.46
2023-01-06T01:22:57.450Z,70.53
2023-01-06T01:24:12.761Z,70.67
2023-01-06T01:24:45.191Z,70.66
2023-01-06T01:25:17.549Z,70.72
2023-01-06T01:25:49.605Z,70.74
2023-01-06T01:26:21.854Z,70.74
2023-01-06T01:26:54.143Z,70.66
2023-01-06T01:27:26.140Z,70.59
2023-01-06T01:27:58.152Z,70.56
2023-01-06T01:28:30.207Z,70.54
2023-01-06T01:29:02.390Z,70.61
2023-01-06T01:29:34.661Z,70.67
2023-01-06T01:30:07.094Z,70.75
2023-01-06T01:30:39.167Z,70.78
2023-01-06T01:31:13.074Z,70.79
2023-01-06T01:31:45.890Z,70.76
2023-01-06T01:32:18.123Z,70.74
2023-01-06T01:32:50.221Z,70.72
2023-01-06T01:33:22.149Z,70.65
2023-01-06T01:33:54.031Z,70.63
2023-01-06T01:34:26.619Z,70.70
2023-01-06T01:34:58.692Z,70.78
2023-01-06T01:35:30.786Z,70.82
2023-01-06T01:36:07.342Z,70.89
2023-01-06T01:36:41.398Z,70.89
2023-01-06T01:37:14.852Z,70.89
2023-01-06T01:37:46.917Z,70.92
2023-01-06T01:38:18.922Z,70.98
2023-01-06T01:38:50.979Z,71.04
2023-01-06T01:39:25.970Z,71.04
2023-01-06T01:39:58.301Z,70.98
2023-01-06T01:40:30.375Z,70.92
2023-01-06T01:41:03.024Z,70.93
2023-01-06T01:41:35.064Z,70.95
2023-01-06T01:42:14.965Z,71.01
2023-01-06T01:42:46.914Z,71.06
2023-01-06T01:43:18.872Z,71.02
2023-01-06T01:43:53.916Z,71.02
2023-01-06T01:45:08.181Z,71.02
2023-01-06T01:45:41.390Z,71.02
2023-01-06T01:46:17.603Z,71.06
2023-01-06T01:46:49.808Z,71.09
2023-01-06T01:47:33.488Z,71.12
2023-01-06T01:48:27.784Z,71.19
2023-01-06T01:49:05.061Z,71.24
2023-01-06T01:49:39.464Z,71.23
2023-01-06T01:50:24.568Z,71.23
2023-01-06T01:51:01.460Z,71.24
2023-01-06T01:51:42.679Z,71.24
2023-01-06T01:52:16.291Z,71.21
2023-01-06T01:52:51.719Z,71.25
2023-01-06T01:53:28.847Z,71.29
2023-01-06T01:54:05.447Z,71.30
2023-01-06T01:54:38.689Z,71.30
2023-01-06T01:55:12.275Z,71.39
2023-01-06T01:55:44.828Z,71.39
2023-01-06T01:56:20.800Z,71.40
2023-01-06T01:57:00.495Z,71.41
2023-01-06T01:57:37.407Z,71.44
2023-01-06T01:58:13.628Z,71.47
2023-01-06T01:58:55.153Z,71.49
2023-01-06T01:59:31.256Z,71.51
2023-01-06T02:00:07.788Z,71.47
2023-01-06T02:00:42.491Z,71.44
2023-01-06T02:01:15.049Z,71.41
2023-01-06T02:01:48.663Z,71.44
2023-01-06T02:02:21.677Z,71.45
2023-01-06T02:02:54.563Z,71.46
2023-01-06T02:03:27.346Z,71.47
2023-01-06T02:04:01.166Z,71.46
2023-01-06T02:04:36.897Z,71.42
2023-01-06T02:05:11.954Z,71.43
2023-01-06T02:05:49.482Z,71.42
2023-01-06T02:06:24.345Z,71.41
2023-01-06T02:06:57.376Z,71.40
2023-01-06T02:07:29.800Z,71.37
2023-01-06T02:08:07.924Z,71.39
2023-01-06T02:08:54.453Z,71.44
2023-01-06T02:09:29.537Z,71.44
2023-01-06T02:10:01.500Z,71.41
2023-01-06T02:10:33.414Z,71.37
2023-01-06T02:11:06.613Z,71.36
2023-01-06T02:11:40.339Z,71.38
2023-01-06T02:12:12.424Z,71.38
2023-01-06T02:12:48.804Z,71.43
2023-01-06T02:13:21.063Z,71.46
2023-01-06T02:14:02.872Z,71.46
2023-01-06T02:14:34.807Z,71.47
2023-01-06T02:15:17.713Z,71.42
2023-01-06T02:15:54.891Z,71.42
2023-01-06T02:16:39.810Z,71.48
2023-01-06T02:17:41.937Z,71.52
2023-01-06T02:18:32.627Z,71.44
2023-01-06T02:19:19.176Z,71.43
2023-01-06T02:20:08.961Z,71.43
2023-01-06T02:20:46.984Z,71.40
2023-01-06T02:21:41.360Z,71.26
2023-01-06T02:22:32.398Z,71.22
2023-01-06T02:23:23.239Z,71.17
2023-01-06T02:24:26.221Z,71.17
2023-01-06T02:25:11.389Z,71.19
2023-01-06T02:26:26.607Z,71.05
2023-01-06T02:27:07.733Z,70.93
2023-01-06T02:28:17.593Z,70.87
2023-01-06T02:29:14.604Z,70.81
2023-01-06T02:30:05.250Z,70.78
2023-01-06T02:31:04.880Z,70.76
2023-01-06T02:31:55.496Z,70.72
2023-01-06T02:32:39.237Z,70.74
2023-01-06T02:33:42.036Z,70.71
2023-01-06T02:34:29.207Z,70.67
2023-01-06T02:35:32.070Z,70.64
2023-01-06T02:36:13.707Z,70.68
2023-01-06T02:37:06.667Z,70.56
2023-01-06T02:37:46.212Z,70.57
2023-01-06T02:38:36.603Z,70.55
2023-01-06T02:39:46.638Z,70.61
2023-01-06T02:40:45.030Z,70.56
2023-01-06T02:41:34.951Z,70.57
2023-01-06T02:42:29.800Z,70.59
2023-01-06T02:43:11.121Z,70.62
2023-01-06T02:44:00.633Z,70.61
2023-01-06T02:44:45.870Z,70.56
2023-01-06T02:45:26.713Z,70.54
2023-01-06T02:46:20.039Z,70.57
2023-01-06T02:47:11.415Z,70.61
2023-01-06T02:47:59.041Z,70.71
2023-01-06T02:49:05.118Z,70.66
2023-01-06T02:49:42.823Z,70.73
2023-01-06T02:50:26.900Z,70.61
2023-01-06T02:51:10.118Z,70.59
2023-01-06T02:51:55.003Z,70.53
2023-01-06T02:53:18.460Z,70.52
2023-01-06T02:54:15.147Z,70.49
2023-01-06T02:55:02.346Z,70.35
2023-01-06T02:55:47.601Z,70.32
2023-01-06T02:56:23.454Z,70.29
2023-01-06T02:57:05.302Z,70.25
2023-01-06T02:57:48.257Z,70.30
2023-01-06T02:58:49.859Z,70.33
2023-01-06T02:59:34.165Z,70.43
2023-01-06T03:00:06.136Z,70.31
2023-01-06T03:00:47.738Z,70.26
2023-01-06T03:01:28.381Z,70.25
2023-01-06T03:02:03.007Z,70.24
2023-01-06T03:02:37.439Z,70.24
2023-01-06T03:03:17.328Z,70.28
2023-01-06T03:03:51.319Z,70.38
2023-01-06T03:04:33.100Z,70.45
2023-01-06T03:05:12.251Z,70.43
2023-01-06T03:05:48.857Z,70.43
2023-01-06T03:06:26.220Z,70.46
2023-01-06T03:07:01.910Z,70.49
2023-01-06T03:07:36.428Z,70.51
2023-01-06T03:08:15.979Z,70.44
2023-01-06T03:08:55.993Z,70.42
2023-01-06T03:10:17.612Z,70.39
2023-01-06T03:10:53.572Z,70.42
2023-01-06T03:11:30.790Z,70.39
2023-01-06T03:12:26.591Z,70.40
2023-01-06T03:13:28.888Z,70.34
2023-01-06T03:14:18.749Z,70.37
2023-01-06T03:14:55.409Z,70.40
2023-01-06T03:15:27.633Z,70.45
2023-01-06T03:16:00.306Z,70.53
2023-01-06T03:16:32.861Z,70.71
2023-01-06T03:17:05.018Z,70.79
2023-01-06T03:17:37.024Z,70.83
2023-01-06T03:18:09.374Z,70.89
2023-01-06T03:18:44.096Z,70.94
2023-01-06T03:19:16.335Z,70.97
2023-01-06T03:19:48.587Z,70.93
2023-01-06T03:20:20.830Z,70.94
2023-01-06T03:20:57.236Z,70.96
2023-01-06T03:21:34.750Z,70.96
2023-01-06T03:22:09.100Z,70.97
2023-01-06T03:22:41.371Z,71.02
2023-01-06T03:23:14.243Z,71.07
2023-01-06T03:23:46.918Z,71.12
2023-01-06T03:24:19.729Z,71.11
2023-01-06T03:24:53.186Z,71.07
2023-01-06T03:25:25.495Z,71.07
2023-01-06T03:25:57.523Z,71.08
2023-01-06T03:26:29.784Z,71.06
2023-01-06T03:27:03.550Z,71.10
2023-01-06T03:27:36.012Z,71.17
2023-01-06T03:28:08.143Z,71.21
2023-01-06T03:28:40.268Z,71.27
2023-01-06T03:29:16.046Z,71.33
2023-01-06T03:29:54.687Z,71.32
2023-01-06T03:30:45.709Z,71.33
2023-01-06T03:31:43.837Z,71.30
2023-01-06T03:32:32.249Z,71.36
2023-01-06T03:34:25.643Z,71.52
2023-01-06T03:35:24.842Z,71.61
2023-01-06T03:36:12.060Z,71.61
2023-01-06T03:37:20.805Z,71.62
2023-01-06T03:38:13.039Z,71.57
2023-01-06T03:38:52.895Z,71.62
2023-01-06T03:39:37.637Z,71.64
2023-01-06T03:40:25.662Z,71.61
2023-01-06T03:41:12.986Z,71.73
2023-01-06T03:42:24.528Z,71.72
2023-01-06T03:43:18.985Z,71.76
2023-01-06T03:44:13.589Z,71.66
2023-01-06T03:45:12.911Z,71.68
2023-01-06T03:45:50.318Z,71.61
2023-01-06T03:46:29.843Z,71.66
2023-01-06T03:47:13.105Z,71.67
2023-01-06T03:48:00.997Z,71.70
2023-01-06T03:48:44.311Z,71.67
2023-01-06T03:49:23.356Z,71.62
2023-01-06T03:50:09.594Z,71.59
2023-01-06T03:50:56.704Z,71.53
2023-01-06T03:52:06.319Z,71.41
2023-01-06T03:52:44.393Z,71.40
2023-01-06T03:53:35.900Z,71.35
2023-01-06T03:54:19.885Z,71.38
2023-01-06T03:55:05.894Z,71.43
2023-01-06T03:55:38.703Z,71.35
2023-01-06T03:56:42.370Z,71.31
2023-01-06T03:57:32.874Z,71.22
2023-01-06T03:58:08.562Z,71.08
2023-01-06T03:58:41.041Z,71.00
2023-01-06T03:59:18.459Z,70.87
2023-01-06T03:59:57.347Z,70.76
2023-01-06T04:00:32.916Z,70.64
2023-01-06T04:01:06.481Z,70.58
2023-01-06T04:01:42.901Z,70.52
2023-01-06T04:02:15.689Z,70.47
2023-01-06T04:02:48.724Z,70.41
2023-01-06T04:03:25.205Z,70.32
2023-01-06T04:03:57.433Z,70.28
2023-01-06T04:04:29.468Z,70.24
2023-01-06T04:05:14.661Z,70.23
2023-01-06T04:05:46.650Z,70.05
2023-01-06T04:06:18.617Z,70.08
2023-01-06T04:06:50.538Z,70.01
2023-01-06T04:07:22.564Z,70.00
2023-01-06T04:07:54.755Z,69.98
2023-01-06T04:08:27.097Z,69.96
2023-01-06T04:08:59.346Z,69.93
2023-01-06T04:09:31.339Z,69.89
2023-01-06T04:10:03.786Z,69.90
2023-01-06T04:10:35.959Z,69.93
2023-01-06T04:11:08.055Z,69.96
2023-01-06T04:11:58.594Z,69.95
2023-01-06T04:12:39.549Z,70.01
2023-01-06T04:13:11.544Z,70.00
2023-01-06T04:13:43.406Z,69.96
2023-01-06T04:14:15.408Z,69.88
2023-01-06T04:14:47.461Z,69.81
2023-01-06T04:15:28.856Z,69.76
2023-01-06T04:16:00.913Z,69.73
2023-01-06T04:16:33.091Z,69.78
2023-01-06T04:17:05.175Z,69.80
2023-01-06T04:17:39.103Z,69.84
2023-01-06T04:18:11.246Z,69.92
2023-01-06T04:18:43.579Z,69.99
2023-01-06T04:19:15.759Z,70.03
2023-01-06T04:19:47.767Z,70.04
2023-01-06T04:20:22.747Z,70.07
2023-01-06T04:20:54.974Z,69.97
2023-01-06T04:21:27.046Z,69.96
2023-01-06T04:21:58.929Z,69.98
2023-01-06T04:22:31.317Z,70.00
2023-01-06T04:23:03.305Z,70.05
2023-01-06T04:23:35.284Z,70.05
2023-01-06T04:24:07.663Z,70.04
2023-01-06T04:24:42.325Z,70.06
2023-01-06T04:25:14.644Z,70.10
2023-01-06T04:25:46.548Z,70.11
2023-01-06T04:26:18.958Z,70.12
2023-01-06T04:26:50.874Z,70.13
2023-01-06T04:27:22.974Z,70.11
2023-01-06T04:27:54.939Z,70.12
2023-01-06T04:28:26.973Z,70.11
2023-01-06T04:29:00.526Z,70.14
2023-01-06T04:29:32.611Z,70.17
2023-01-06T04:30:06.316Z,70.19
2023-01-06T04:30:38.397Z,70.18
2023-01-06T04:31:11.436Z,70.23
2023-01-06T04:31:43.555Z,70.21
2023-01-06T04:32:15.465Z,70.21
2023-01-06T04:32:47.574Z,70.21
2023-01-06T04:33:19.631Z,70.21
2023-01-06T04:33:51.773Z,70.20
2023-01-06T04:34:24.072Z,70.25
2023-01-06T04:34:56.279Z,70.23
2023-01-06T04:35:28.533Z,70.25
2023-01-06T04:36:00.747Z,70.25
2023-01-06T04:36:32.996Z,70.18
2023-01-06T04:37:05.315Z,69.91
2023-01-06T04:37:37.374Z,69.25
2023-01-06T04:38:09.580Z,68.37
2023-01-06T04:38:41.724Z,67.50
2023-01-06T04:39:13.793Z,66.59
2023-01-06T04:39:45.870Z,65.67
2023-01-06T04:40:17.909Z,64.90
2023-01-06T04:40:49.962Z,64.46
2023-01-06T04:41:22.179Z,64.28
2023-01-06T04:41:54.363Z,64.27
2023-01-06T04:42:26.380Z,64.32
2023-01-06T04:43:04.125Z,64.41
2023-01-06T04:43:36.203Z,64.58
2023-01-06T04:44:08.221Z,64.48
2023-01-06T04:44:41.853Z,64.34
2023-01-06T04:45:14.073Z,64.22
2023-01-06T04:45:46.887Z,64.10
2023-01-06T04:46:18.860Z,64.16
2023-01-06T04:46:50.902Z,64.16
2023-01-06T04:47:23.068Z,64.18
2023-01-06T04:47:55.265Z,64.27
2023-01-06T04:48:27.369Z,64.37
2023-01-06T04:48:59.309Z,64.55
2023-01-06T04:49:31.429Z,64.69
2023-01-06T04:50:03.722Z,64.96
2023-01-06T04:50:35.821Z,65.14
2023-01-06T04:51:09.788Z,65.32
2023-01-06T04:51:41.983Z,65.51
2023-01-06T04:52:16.665Z,65.66
2023-01-06T04:52:51.004Z,65.78
2023-01-06T04:53:22.913Z,65.98
2023-01-06T04:53:55.867Z,66.16
2023-01-06T04:54:27.847Z,66.31
2023-01-06T04:54:59.776Z,66.53
2023-01-06T04:55:32.277Z,66.71
2023-01-06T04:56:06.118Z,66.85
2023-01-06T04:56:38.248Z,67.01
2023-01-06T04:57:10.331Z,67.20
2023-01-06T04:57:42.651Z,67.31
2023-01-06T04:58:15.193Z,67.44
2023-01-06T04:58:47.410Z,67.58
2023-01-06T04:59:19.953Z,67.65
2023-01-06T04:59:52.098Z,67.71
2023-01-06T05:00:24.931Z,67.79
2023-01-06T05:01:11.120Z,67.86
2023-01-06T05:01:43.298Z,67.85
2023-01-06T05:02:15.514Z,68.03
2023-01-06T05:02:48.759Z,68.10
2023-01-06T05:03:21.009Z,68.17
2023-01-06T05:03:53.281Z,68.24
2023-01-06T05:04:25.267Z,68.35
2023-01-06T05:04:57.422Z,68.46
2023-01-06T05:05:29.348Z,68.53
2023-01-06T05:06:09.470Z,68.55
2023-01-06T05:06:41.523Z,68.61
2023-01-06T05:07:13.560Z,68.63
2023-01-06T05:07:45.496Z,68.73
2023-01-06T05:08:17.495Z,68.83
2023-01-06T05:08:49.806Z,68.90
2023-01-06T05:09:21.933Z,69.03
2023-01-06T05:09:53.946Z,69.14
2023-01-06T05:10:25.879Z,69.25
2023-01-06T05:11:02.467Z,69.38
2023-01-06T05:11:34.516Z,69.46
2023-01-06T05:12:06.894Z,69.52
2023-01-06T05:12:39.148Z,69.58
2023-01-06T05:13:11.095Z,69.63
2023-01-06T05:13:43.966Z,69.67
2023-01-06T05:14:17.081Z,69.70
2023-01-06T05:14:49.395Z,69.68
2023-01-06T05:15:21.462Z,69.72
2023-01-06T05:15:53.463Z,69.76
2023-01-06T05:16:27.767Z,69.82
2023-01-06T05:16:59.758Z,69.85
2023-01-06T05:17:31.965Z,69.89
2023-01-06T05:18:04.140Z,69.89
2023-01-06T05:18:36.119Z,69.88
2023-01-06T05:19:08.142Z,69.91
2023-01-06T05:19:42.477Z,69.95
2023-01-06T05:20:14.602Z,69.92
2023-01-06T05:20:50.591Z,69.91
2023-01-06T05:21:24.690Z,69.92
2023-01-06T05:21:56.758Z,69.96
2023-01-06T05:22:28.607Z,69.98
2023-01-06T05:23:00.529Z,70.00
2023-01-06T05:23:32.542Z,70.09
2023-01-06T05:24:04.728Z,70.16
2023-01-06T05:24:37.102Z,70.24
2023-01-06T05:25:09.304Z,70.31
2023-01-06T05:25:41.480Z,70.40
2023-01-06T05:26:19.647Z,70.44
2023-01-06T05:26:51.611Z,70.41
2023-01-06T05:27:23.720Z,70.47
2023-01-06T05:27:55.659Z,70.51
2023-01-06T05:28:29.247Z,70.58
2023-01-06T05:29:01.241Z,70.61
2023-01-06T05:29:33.623Z,70.67
2023-01-06T05:30:06.348Z,70.73
2023-01-06T05:30:38.479Z,70.75
2023-01-06T05:31:11.340Z,70.80
2023-01-06T05:31:43.625Z,70.84
2023-01-06T05:32:15.771Z,70.87
2023-01-06T05:32:47.793Z,70.84
2023-01-06T05:33:19.750Z,70.82
2023-01-06T05:33:51.749Z,70.75
2023-01-06T05:34:24.207Z,70.75
2023-01-06T05:34:56.276Z,70.75
2023-01-06T05:35:28.191Z,70.76
2023-01-06T05:36:02.589Z,70.71
2023-01-06T05:36:34.576Z,70.70
2023-01-06T05:37:06.494Z,70.66
2023-01-06T05:37:38.657Z,70.59
2023-01-06T05:38:10.612Z,70.55
2023-01-06T05:38:43.351Z,70.56
2023-01-06T05:39:15.384Z,70.56
2023-01-06T05:39:47.533Z,70.56
2023-01-06T05:40:19.596Z,70.54
2023-01-06T05:40:52.819Z,70.55
2023-01-06T05:41:24.663Z,70.59
2023-01-06T05:41:56.853Z,70.62
2023-01-06T05:42:28.901Z,70.63
2023-01-06T05:43:01.203Z,70.57
2023-01-06T05:43:35.280Z,70.47
2023-01-06T05:44:07.522Z,70.39
2023-01-06T05:44:39.650Z,70.25
2023-01-06T05:45:11.720Z,70.15
2023-01-06T05:45:43.950Z,70.06
2023-01-06T05:46:16.023Z,70.02
2023-01-06T05:46:47.951Z,69.99
2023-01-06T05:47:20.523Z,69.98
2023-01-06T05:47:52.510Z,69.99
2023-01-06T05:48:28.188Z,69.98
2023-01-06T05:49:01.759Z,70.01
2023-01-06T05:49:33.826Z,70.05
2023-01-06T05:50:06.566Z,70.07
2023-01-06T05:50:38.589Z,70.07
2023-01-06T05:51:13.154Z,70.12
2023-01-06T05:51:45.295Z,70.15
2023-01-06T05:52:17.324Z,70.16
2023-01-06T05:52:49.446Z,70.18
2023-01-06T05:53:21.406Z,70.18
2023-01-06T05:53:53.418Z,70.17
2023-01-06T05:54:25.463Z,70.23
2023-01-06T05:54:57.555Z,70.27
2023-01-06T05:55:29.507Z,70.30
2023-01-06T05:56:02.969Z,70.28
2023-01-06T05:56:35.724Z,70.00
2023-01-06T05:57:09.406Z,69.86
2023-01-06T05:57:41.373Z,69.73
2023-01-06T05:58:13.561Z,69.76
2023-01-06T05:58:48.088Z,69.60
2023-01-06T05:59:20.224Z,69.37
2023-01-06T05:59:52.225Z,69.26
2023-01-06T06:00:24.286Z,69.41
2023-01-06T06:00:56.428Z,69.60
2023-01-06T06:01:30.853Z,69.80
2023-01-06T06:02:03.114Z,69.85
2023-01-06T06:02:35.216Z,69.85
2023-01-06T06:03:07.260Z,69.66
2023-01-06T06:03:39.300Z,69.56
2023-01-06T06:04:12.960Z,69.25
2023-01-06T06:04:46.923Z,69.07
2023-01-06T06:05:18.950Z,68.79
2023-01-06T06:05:51.163Z,68.91
2023-01-06T06:06:25.698Z,69.03
2023-01-06T06:06:57.791Z,69.08
2023-01-06T06:07:30.038Z,69.18
2023-01-06T06:08:02.104Z,69.27
2023-01-06T06:08:34.368Z,69.37
2023-01-06T06:09:06.440Z,69.41
2023-01-06T06:09:38.552Z,69.39
2023-01-06T06:10:10.546Z,69.42
2023-01-06T06:10:42.709Z,69.40
2023-01-06T06:11:16.769Z,69.31
2023-01-06T06:11:51.454Z,69.27
2023-01-06T06:12:23.538Z,69.31
2023-01-06T06:12:55.769Z,69.39
2023-01-06T06:13:27.941Z,69.49
2023-01-06T06:14:00.138Z,69.57
2023-01-06T06:14:32.414Z,69.43
2023-01-06T06:15:04.822Z,69.23
2023-01-06T06:15:36.876Z,69.26
2023-01-06T06:16:11.198Z,69.25
2023-01-06T06:16:43.306Z,69.00
2023-01-06T06:17:15.420Z,68.85
2023-01-06T06:17:47.445Z,68.81
2023-01-06T06:18:19.512Z,68.79
2023-01-06T06:18:54.386Z,68.60
2023-01-06T06:19:26.672Z,68.52
2023-01-06T06:19:58.686Z,68.59
2023-01-06T06:20:30.726Z,68.62
2023-01-06T06:21:05.950Z,68.37
2023-01-06T06:21:38.004Z,68.36
2023-01-06T06:22:10.815Z,68.36
2023-01-06T06:22:42.925Z,68.40
2023-01-06T06:23:14.775Z,68.47
2023-01-06T06:23:47.664Z,68.55
2023-01-06T06:24:19.664Z,68.67
2023-01-06T06:24:51.674Z,68.81
2023-01-06T06:25:23.993Z,68.93
2023-01-06T06:25:56.538Z,68.93
2023-01-06T06:26:28.564Z,68.93
2023-01-06T06:27:00.761Z,68.97
2023-01-06T06:27:32.922Z,68.93
2023-01-06T06:28:04.993Z,68.87
2023-01-06T06:28:38.348Z,68.88
2023-01-06T06:29:10.948Z,68.91
2023-01-06T06:29:42.977Z,68.87
2023-01-06T06:30:16.659Z,68.87
2023-01-06T06:30:48.711Z,68.87
2023-01-06T06:31:23.806Z,68.94
2023-01-06T06:31:56.189Z,68.94
2023-01-06T06:32:30.636Z,69.00
2023-01-06T06:33:02.759Z,68.92
2023-01-06T06:33:35.421Z,68.95
2023-01-06T06:34:13.494Z,69.02
2023-01-06T06:34:47.058Z,69.01
2023-01-06T06:35:20.518Z,69.01
2023-01-06T06:35:58.144Z,68.98
2023-01-06T06:36:31.989Z,68.74
2023-01-06T06:37:05.063Z,68.64
2023-01-06T06:37:37.439Z,68.57
2023-01-06T06:38:09.540Z,68.57
2023-01-06T06:38:43.438Z,68.55
2023-01-06T06:39:15.761Z,68.59
2023-01-06T06:39:47.839Z,68.64
2023-01-06T06:40:19.874Z,68.71
2023-01-06T06:40:52.230Z,68.78
2023-01-06T06:41:25.309Z,68.80
2023-01-06T06:41:57.385Z,68.80
2023-01-06T06:42:29.531Z,68.76
2023-01-06T06:43:01.439Z,68.71
2023-01-06T06:43:34.046Z,68.60
2023-01-06T06:44:06.159Z,68.59
2023-01-06T06:44:38.203Z,68.57
2023-01-06T06:45:10.637Z,68.65
2023-01-06T06:45:46.935Z,68.77
2023-01-06T06:46:19.844Z,68.85
2023-01-06T06:46:52.050Z,68.93
2023-01-06T06:47:24.151Z,69.03
2023-01-06T06:47:56.232Z,69.11
2023-01-06T06:48:29.214Z,69.15
2023-01-06T06:49:01.391Z,69.22
2023-01-06T06:49:33.581Z,69.21
2023-01-06T06:50:05.689Z,69.14
2023-01-06T06:50:37.820Z,69.11
2023-01-06T06:51:12.077Z,69.11
2023-01-06T06:51:46.852Z,69.12
2023-01-06T06:52:19.007Z,69.00
2023-01-06T06:52:51.539Z,68.89
2023-01-06T06:53:23.845Z,68.81
2023-01-06T06:53:55.702Z,68.67
2023-01-06T06:54:27.799Z,68.50
2023-01-06T06:54:59.811Z,68.33
2023-01-06T06:55:32.723Z,68.24
2023-01-06T06:56:06.742Z,68.24
2023-01-06T06:56:38.868Z,68.22
2023-01-06T06:57:11.190Z,68.25
2023-01-06T06:57:43.228Z,68.29
2023-01-06T06:58:15.324Z,68.20
2023-01-06T06:58:47.821Z,68.20
2023-01-06T06:59:19.955Z,68.22
2023-01-06T06:59:52.074Z,68.12
2023-01-06T07:00:24.446Z,67.96
2023-01-06T07:00:56.981Z,67.95
2023-01-06T07:01:31.406Z,68.04
2023-01-06T07:02:04.134Z,68.14
2023-01-06T07:02:36.532Z,68.21
2023-01-06T07:03:08.801Z,68.25
2023-01-06T07:03:40.912Z,68.27
2023-01-06T07:04:13.462Z,68.28
2023-01-06T07:04:45.605Z,68.22
2023-01-06T07:05:18.210Z,68.09
2023-01-06T07:05:52.009Z,67.97
2023-01-06T07:06:28.737Z,67.69
2023-01-06T07:07:01.069Z,67.79
2023-01-06T07:07:33.101Z,67.80
2023-01-06T07:08:05.209Z,67.71
2023-01-06T07:08:37.470Z,67.49
2023-01-06T07:09:09.734Z,67.56
2023-01-06T07:09:41.881Z,67.62
2023-01-06T07:10:15.851Z,67.67
2023-01-06T07:10:48.158Z,67.65
2023-01-06T07:11:20.777Z,67.73
2023-01-06T07:11:53.190Z,67.90
2023-01-06T07:12:25.278Z,67.94
2023-01-06T07:12:57.277Z,67.97
2023-01-06T07:13:29.451Z,68.11
2023-01-06T07:14:03.296Z,68.22
2023-01-06T07:14:35.570Z,68.29
2023-01-06T07:15:08.697Z,68.39
2023-01-06T07:15:41.058Z,68.51
2023-01-06T07:16:14.206Z,68.57
2023-01-06T07:16:46.526Z,68.70
2023-01-06T07:17:18.595Z,68.82
2023-01-06T07:17:50.615Z,68.97
2023-01-06T07:18:22.715Z,68.99
2023-01-06T07:18:54.760Z,69.12
2023-01-06T07:19:26.796Z,69.16
2023-01-06T07:19:58.978Z,69.16
2023-01-06T07:20:32.854Z,69.18
2023-01-06T07:21:06.095Z,69.16
2023-01-06T07:21:38.654Z,69.20
2023-01-06T07:22:10.712Z,69.24
2023-01-06T07:22:42.888Z,69.18
2023-01-06T07:23:16.298Z,69.12
2023-01-06T07:23:48.640Z,69.06
2023-01-06T07:24:20.692Z,69.06
2023-01-06T07:24:52.857Z,68.99
2023-01-06T07:25:25.299Z,69.00
2023-01-06T07:25:59.901Z,68.99
2023-01-06T07:26:32.144Z,69.00
2023-01-06T07:27:04.232Z,69.03
2023-01-06T07:27:37.386Z,69.08
2023-01-06T07:28:09.649Z,69.07
2023-01-06T07:28:41.740Z,69.00
2023-01-06T07:29:13.851Z,69.00
2023-01-06T07:29:45.889Z,69.01
2023-01-06T07:30:18.168Z,69.03
2023-01-06T07:30:51.098Z,68.98
2023-01-06T07:31:23.523Z,68.62
2023-01-06T07:31:55.680Z,68.25
2023-01-06T07:32:27.770Z,68.05
2023-01-06T07:33:00.187Z,67.93
2023-01-06T07:33:32.301Z,67.85
2023-01-06T07:34:04.548Z,67.91
2023-01-06T07:34:36.517Z,67.99
2023-01-06T07:35:08.893Z,68.10
2023-01-06T07:35:41.252Z,68.23
2023-01-06T07:36:13.512Z,68.34
2023-01-06T07:36:45.602Z,68.38
2023-01-06T07:37:17.647Z,68.26
2023-01-06T07:37:50.113Z,68.23
2023-01-06T07:38:22.586Z,68.26
2023-01-06T07:38:54.655Z,68.27
2023-01-06T07:39:26.718Z,68.33
2023-01-06T07:39:58.976Z,68.40
2023-01-06T07:40:31.218Z,68.46
2023-01-06T07:41:03.750Z,68.52